Time;durP1;ratioP1;P1;durP2;ratioP2;P2;SDS_P1;SDS_P2;PMS_P1;PMS_P2;Temp;Humidity;BMP_temperature;BMP_pressure;BME280_temperature;BME280_humidity;BME280_pressure;Samples;Min_cycle;Max_cycle;Signal;HPM_P1;HPM_P2
2022/01/26 00:00:42;;;;;;;63.17;32.33;;;1.40;99.90;;;;;;5020390;28;20052;-77
2022/01/26 00:05:55;;;;;;;64.25;34.00;;;1.10;99.90;;;;;;5034535;28;20029;-78
2022/01/26 00:08:24;;;;;;;67.60;34.60;;;1.10;99.90;;;;;;5032398;28;20018;-77
2022/01/26 00:10:51;;;;;;;72.45;36.47;;;1.00;99.90;;;;;;5023879;28;20053;-78
2022/01/26 00:13:16;;;;;;;69.05;36.38;;;1.00;99.90;;;;;;5009598;28;20034;-78
2022/01/26 00:15:42;;;;;;;71.95;34.20;;;1.00;99.90;;;;;;5042109;28;20056;-78
2022/01/26 00:18:07;;;;;;;71.68;38.17;;;1.00;99.90;;;;;;5024795;28;20037;-78
2022/01/26 00:20:44;;;;;;;75.32;37.08;;;1.00;99.90;;;;;;5019048;28;20498;-77
2022/01/26 00:26:15;;;;;;;76.30;35.45;;;1.10;99.90;;;;;;5017354;28;20049;-76
2022/01/26 00:28:58;;;;;;;70.47;35.13;;;1.20;99.90;;;;;;5016658;28;20033;-76
2022/01/26 00:40:00;;;;;;;72.85;36.75;;;1.40;99.90;;;;;;4999378;28;20038;-77
2022/01/26 00:42:30;;;;;;;64.97;34.65;;;1.40;99.90;;;;;;5011826;28;20030;-76
2022/01/26 00:44:56;;;;;;;69.50;34.97;;;1.40;99.90;;;;;;5021684;28;20067;-76
2022/01/26 00:47:22;;;;;;;75.90;37.08;;;1.30;99.90;;;;;;5023655;28;20053;-77
2022/01/26 00:49:49;;;;;;;75.00;36.90;;;1.40;99.90;;;;;;5023467;28;20504;-77
2022/01/26 00:52:25;;;;;;;72.20;36.53;;;1.40;99.90;;;;;;5023043;28;20033;-77
2022/01/26 00:54:50;;;;;;;78.68;38.90;;;1.30;99.90;;;;;;5021497;28;20040;-77
2022/01/26 00:57:16;;;;;;;77.80;38.03;;;1.30;99.90;;;;;;5017499;28;20108;-78
2022/01/26 00:59:43;;;;;;;78.07;36.42;;;1.20;99.90;;;;;;5033015;28;20025;-79
2022/01/26 01:02:08;;;;;;;73.82;36.03;;;1.40;99.90;;;;;;5016567;28;20026;-77
2022/01/26 01:04:34;;;;;;;74.68;34.97;;;1.30;99.90;;;;;;5026313;28;20018;-78
2022/01/26 01:07:02;;;;;;;72.13;35.28;;;1.00;99.90;;;;;;5024649;28;20113;-77
2022/01/26 01:09:32;;;;;;;69.80;33.67;;;0.90;99.90;;;;;;5038288;28;20065;-77
2022/01/26 01:12:00;;;;;;;67.82;33.22;;;0.80;99.90;;;;;;5025289;28;20060;-78
2022/01/26 01:14:26;;;;;;;72.53;35.22;;;0.70;99.90;;;;;;5020852;28;20061;-78
2022/01/26 01:16:54;;;;;;;62.28;30.45;;;0.60;99.90;;;;;;5020947;28;20493;-78
2022/01/26 01:19:32;;;;;;;55.13;30.45;;;0.50;99.90;;;;;;5023829;28;20014;-77
2022/01/26 01:25:29;;;;;;;62.83;32.05;;;0.50;99.90;;;;;;5025462;28;20021;-77
2022/01/26 01:30:26;;;;;;;62.67;33.20;;;0.50;99.90;;;;;;5038482;28;20036;-77
2022/01/26 01:33:05;;;;;;;64.60;32.67;;;0.50;99.90;;;;;;5037802;28;20017;-77
2022/01/26 01:35:34;;;;;;;57.60;30.23;;;0.40;99.90;;;;;;5031644;28;20176;-78
2022/01/26 01:38:08;;;;;;;62.25;32.97;;;0.40;99.90;;;;;;5016789;28;20034;-77
2022/01/26 01:40:34;;;;;;;55.80;30.10;;;0.50;99.90;;;;;;5015059;28;20017;-77
2022/01/26 01:42:59;;;;;;;65.18;31.25;;;0.40;99.90;;;;;;5012434;28;20080;-77
2022/01/26 01:45:37;;;;;;;60.78;32.38;;;0.40;99.90;;;;;;5032977;28;20478;-77
2022/01/26 01:48:04;;;;;;;61.25;31.42;;;0.40;99.90;;;;;;5022792;28;20028;-77
2022/01/26 01:50:35;;;;;;;61.50;30.08;;;0.40;99.90;;;;;;5021352;28;20393;-78
2022/01/26 01:53:02;;;;;;;70.85;31.10;;;0.40;99.90;;;;;;5015166;28;20022;-78
2022/01/26 01:55:29;;;;;;;59.55;30.70;;;0.40;99.90;;;;;;5013062;28;20030;-77
2022/01/26 01:57:56;;;;;;;66.45;31.35;;;0.40;99.90;;;;;;5014265;28;20074;-77
2022/01/26 02:00:22;;;;;;;59.72;30.85;;;0.30;99.90;;;;;;5013772;28;20053;-77
2022/01/26 02:02:48;;;;;;;52.15;29.92;;;0.30;99.90;;;;;;5014619;28;20026;-78
2022/01/26 02:05:14;;;;;;;53.95;28.95;;;0.20;99.90;;;;;;5015346;28;20029;-78
2022/01/26 02:07:39;;;;;;;55.50;30.80;;;0.30;99.90;;;;;;5015385;28;20025;-79
2022/01/26 02:10:05;;;;;;;57.63;29.50;;;0.20;99.90;;;;;;5014742;28;20462;-78
2022/01/26 02:12:34;;;;;;;46.00;26.33;;;0.20;99.90;;;;;;5013481;28;20051;-78
2022/01/26 02:15:09;;;;;;;53.20;28.38;;;0.10;99.90;;;;;;5029557;28;20026;-79
2022/01/26 03:03:20;;;;;;;43.80;22.35;;;-0.30;99.90;;;;;;5014315;28;20033;-77
2022/01/26 03:05:53;;;;;;;39.45;21.88;;;-0.30;99.90;;;;;;5018612;28;20513;-79
2022/01/26 03:08:28;;;;;;;39.08;22.90;;;-0.20;99.90;;;;;;5023368;28;20014;-78
2022/01/26 03:10:57;;;;;;;36.75;21.33;;;-0.20;99.90;;;;;;5016531;28;20088;-78
2022/01/26 03:13:24;;;;;;;37.67;21.90;;;-0.20;99.90;;;;;;5022567;28;20105;-77
2022/01/26 03:16:00;;;;;;;34.67;20.48;;;-0.10;99.90;;;;;;5038388;28;20517;-78
2022/01/26 03:21:08;;;;;;;41.17;21.10;;;-0.10;99.90;;;;;;5014188;28;20026;-78
2022/01/26 03:34:13;;;;;;;38.38;22.40;;;-0.20;99.90;;;;;;5019061;28;20030;-78
2022/01/26 03:36:52;;;;;;;38.42;22.92;;;-0.10;99.90;;;;;;5022454;28;20084;-78
2022/01/26 03:39:21;;;;;;;43.53;23.02;;;-0.20;99.90;;;;;;5019202;28;20116;-78
2022/01/26 03:41:52;;;;;;;38.38;22.88;;;-0.10;99.90;;;;;;5035475;28;20040;-78
2022/01/26 03:44:18;;;;;;;38.47;20.67;;;-0.20;99.90;;;;;;5028377;28;20026;-78
2022/01/26 03:46:45;;;;;;;38.97;22.75;;;-0.20;99.90;;;;;;5022140;28;20025;-77
2022/01/26 03:49:12;;;;;;;39.30;22.63;;;-0.20;99.90;;;;;;5018865;28;20022;-77
2022/01/26 03:51:38;;;;;;;38.47;22.15;;;-0.20;99.90;;;;;;5016415;28;20022;-77
2022/01/26 03:54:06;;;;;;;41.25;23.67;;;-0.10;99.90;;;;;;5017330;28;20064;-78
2022/01/26 03:56:32;;;;;;;40.65;24.40;;;-0.10;99.90;;;;;;5019670;28;20022;-77
2022/01/26 03:58:58;;;;;;;43.05;23.13;;;-0.10;99.90;;;;;;5036540;28;20041;-78
2022/01/26 04:01:24;;;;;;;43.40;22.23;;;0.00;99.90;;;;;;5018622;28;20026;-77
2022/01/26 04:03:50;;;;;;;42.38;23.02;;;0.00;99.90;;;;;;5022615;28;20029;-77
2022/01/26 04:06:17;;;;;;;39.63;22.85;;;0.00;99.90;;;;;;5023810;28;20034;-78
2022/01/26 04:08:44;;;;;;;36.53;21.83;;;0.20;99.90;;;;;;5027041;28;20048;-78
2022/01/26 04:13:56;;;;;;;46.88;23.50;;;0.30;99.90;;;;;;5017722;28;20052;-77
2022/01/26 04:16:22;;;;;;;45.50;23.27;;;0.30;99.90;;;;;;5017705;28;20026;-78
2022/01/26 04:18:48;;;;;;;49.38;23.45;;;0.20;99.90;;;;;;5016723;28;20052;-77
2022/01/26 04:23:59;;;;;;;48.08;23.83;;;0.20;99.90;;;;;;5016521;28;20029;-77
2022/01/26 04:26:34;;;;;;;46.75;23.45;;;0.20;99.90;;;;;;5019187;28;20054;-76
2022/01/26 04:29:05;;;;;;;47.05;24.23;;;0.20;99.90;;;;;;5018702;28;20018;-77
2022/01/26 04:31:31;;;;;;;51.60;25.52;;;0.20;99.90;;;;;;5016911;28;20018;-78
2022/01/26 04:33:56;;;;;;;48.88;25.58;;;0.20;99.90;;;;;;5018504;28;20402;-77
2022/01/26 04:36:29;;;;;;;47.95;24.88;;;0.20;99.90;;;;;;5017662;28;20030;-78
2022/01/26 04:38:58;;;;;;;52.30;26.13;;;0.30;99.90;;;;;;5017020;28;20448;-77
2022/01/26 04:41:42;;;;;;;51.55;24.60;;;0.20;99.90;;;;;;5015324;28;20051;-76
2022/01/26 04:44:16;;;;;;;55.10;27.20;;;0.20;99.90;;;;;;5015062;28;20026;-78
2022/01/26 04:46:42;;;;;;;46.85;24.50;;;0.20;99.90;;;;;;5015091;28;20022;-78
2022/01/26 04:49:07;;;;;;;52.90;24.52;;;0.20;99.90;;;;;;5015355;28;20017;-78
2022/01/26 04:51:33;;;;;;;52.30;24.73;;;0.20;99.90;;;;;;5015702;28;20018;-77
2022/01/26 04:53:59;;;;;;;50.60;26.27;;;0.30;99.90;;;;;;5015562;28;20059;-79
2022/01/26 04:56:24;;;;;;;49.78;23.60;;;0.30;99.90;;;;;;5015437;28;20026;-78
2022/01/26 04:58:50;;;;;;;54.35;27.13;;;0.30;99.90;;;;;;5015635;28;20156;-77
2022/01/26 05:01:15;;;;;;;50.17;25.58;;;0.40;99.90;;;;;;5025074;28;20028;-77
2022/01/26 05:03:41;;;;;;;53.42;26.88;;;0.30;99.90;;;;;;5025263;28;20057;-78
2022/01/26 05:06:06;;;;;;;52.00;24.75;;;0.30;99.90;;;;;;5031765;28;20038;-77
2022/01/26 05:08:32;;;;;;;49.80;25.10;;;0.30;99.90;;;;;;5029638;28;20053;-77
2022/01/26 05:10:59;;;;;;;49.38;25.15;;;0.30;99.90;;;;;;5019126;28;20093;-78
2022/01/26 05:13:25;;;;;;;51.28;25.85;;;0.30;99.90;;;;;;5016208;28;20022;-77
2022/01/26 05:15:51;;;;;;;58.10;26.83;;;0.30;99.90;;;;;;5016522;28;20037;-78
2022/01/26 05:18:16;;;;;;;59.03;28.25;;;0.20;99.90;;;;;;5015632;28;20050;-80
2022/01/26 05:20:42;;;;;;;54.78;24.33;;;0.30;99.90;;;;;;5016131;28;20017;-78
2022/01/26 05:23:09;;;;;;;49.38;26.40;;;0.30;99.90;;;;;;5016822;28;20068;-77
2022/01/26 05:25:34;;;;;;;51.63;25.65;;;0.30;99.90;;;;;;5016197;28;20029;-77
2022/01/26 05:28:00;;;;;;;47.40;25.42;;;0.30;99.90;;;;;;5014407;28;20456;-78
2022/01/26 05:30:27;;;;;;;48.72;25.30;;;0.30;99.90;;;;;;5022547;28;20424;-76
2022/01/26 05:32:53;;;;;;;53.60;24.90;;;0.30;99.90;;;;;;5033910;28;20025;-77
2022/01/26 05:35:18;;;;;;;52.75;25.73;;;0.40;99.90;;;;;;5046952;28;20040;-78
2022/01/26 05:37:44;;;;;;;49.10;24.98;;;0.40;99.90;;;;;;5037950;28;20072;-78
2022/01/26 05:40:11;;;;;;;50.25;23.85;;;0.40;99.90;;;;;;5038137;28;20099;-78
2022/01/26 05:42:37;;;;;;;49.22;26.33;;;0.40;99.90;;;;;;5036574;28;20106;-77
2022/01/26 05:45:06;;;;;;;51.45;24.95;;;0.40;99.90;;;;;;5035031;28;20033;-77
2022/01/26 05:47:33;;;;;;;51.45;25.13;;;0.40;99.90;;;;;;5031592;28;20018;-77
2022/01/26 05:49:59;;;;;;;47.75;24.70;;;0.40;99.90;;;;;;5031466;28;20145;-77
2022/01/26 05:52:25;;;;;;;53.67;27.52;;;0.40;99.90;;;;;;5030113;28;20025;-77
2022/01/26 05:54:51;;;;;;;43.58;22.55;;;0.40;99.90;;;;;;5021067;28;20025;-77
2022/01/26 05:57:16;;;;;;;48.78;24.10;;;0.40;99.90;;;;;;5015271;28;20029;-76
2022/01/26 05:59:42;;;;;;;50.20;24.92;;;0.40;99.90;;;;;;5016761;28;20030;-77
2022/01/26 06:02:07;;;;;;;42.40;21.23;;;0.40;99.90;;;;;;5016888;28;20559;-78
2022/01/26 06:04:33;;;;;;;56.53;26.73;;;0.40;99.90;;;;;;5016162;28;20486;-78
2022/01/26 06:06:59;;;;;;;57.28;26.67;;;0.40;99.90;;;;;;5016192;28;20390;-78
2022/01/26 06:09:24;;;;;;;50.20;24.92;;;0.50;99.90;;;;;;5017449;28;20017;-77
2022/01/26 06:11:50;;;;;;;49.67;25.05;;;0.50;99.90;;;;;;5024137;28;20454;-77
2022/01/26 06:14:15;;;;;;;43.22;23.60;;;0.40;99.90;;;;;;5023000;28;20478;-77
2022/01/26 06:16:41;;;;;;;52.97;24.50;;;0.40;99.90;;;;;;5038987;28;20045;-77
2022/01/26 06:19:09;;;;;;;49.42;26.75;;;0.50;99.90;;;;;;5020544;28;20029;-77
2022/01/26 06:21:35;;;;;;;52.13;25.48;;;0.50;99.90;;;;;;5016468;28;20149;-77
2022/01/26 06:24:00;;;;;;;54.17;25.65;;;0.40;99.90;;;;;;5016559;28;20026;-77
2022/01/26 06:26:26;;;;;;;51.40;23.45;;;0.50;99.90;;;;;;5020868;28;20524;-78
2022/01/26 06:28:51;;;;;;;51.25;26.30;;;0.50;99.90;;;;;;5015305;28;20042;-78
2022/01/26 06:31:18;;;;;;;53.78;24.17;;;0.40;99.90;;;;;;5014260;28;20486;-78
2022/01/26 06:33:46;;;;;;;51.78;25.40;;;0.50;99.90;;;;;;5029757;28;20053;-77
2022/01/26 06:36:14;;;;;;;52.83;26.17;;;0.50;99.90;;;;;;5029897;28;20025;-79
2022/01/26 06:38:41;;;;;;;56.45;25.52;;;0.50;99.90;;;;;;5015299;28;20048;-77
2022/01/26 06:41:07;;;;;;;51.45;26.08;;;0.60;99.90;;;;;;5014860;28;20084;-77
2022/01/26 06:43:33;;;;;;;44.40;22.95;;;0.60;99.90;;;;;;5016154;28;20026;-76
2022/01/26 06:46:03;;;;;;;51.92;24.70;;;0.50;99.90;;;;;;5038308;28;20059;-78
2022/01/26 06:51:09;;;;;;;45.38;23.27;;;0.60;99.90;;;;;;5017091;28;20029;-77
2022/01/26 06:53:35;;;;;;;47.67;24.40;;;0.60;99.90;;;;;;5019930;28;20028;-78
2022/01/26 06:56:00;;;;;;;46.95;22.77;;;0.50;99.90;;;;;;5013773;28;20026;-77
2022/01/26 06:58:26;;;;;;;48.78;24.92;;;0.50;99.90;;;;;;5036666;28;20045;-77
2022/01/26 07:00:51;;;;;;;44.80;24.25;;;0.60;99.90;;;;;;5019900;28;20056;-77
2022/01/26 07:03:17;;;;;;;47.58;25.17;;;0.50;99.90;;;;;;5017137;28;20036;-78
2022/01/26 07:05:43;;;;;;;48.15;22.95;;;0.50;99.90;;;;;;5016453;28;20072;-78
2022/01/26 07:08:09;;;;;;;48.80;22.83;;;0.50;99.90;;;;;;5014775;28;20029;-76
2022/01/26 07:10:34;;;;;;;47.88;23.90;;;0.50;99.90;;;;;;5014522;28;20022;-79
2022/01/26 07:13:02;;;;;;;55.22;25.42;;;0.50;99.90;;;;;;5014419;28;20030;-78
2022/01/26 07:23:47;;;;;;;46.63;23.40;;;0.50;99.90;;;;;;5019018;28;20408;-78
2022/01/26 07:26:13;;;;;;;51.33;24.15;;;0.50;99.90;;;;;;5021737;28;20022;-79
2022/01/26 07:28:39;;;;;;;38.47;20.20;;;0.50;99.90;;;;;;5026309;28;20441;-77
2022/01/26 07:31:06;;;;;;;48.83;25.90;;;0.50;99.90;;;;;;5042002;28;20026;-77
2022/01/26 07:33:33;;;;;;;50.80;24.98;;;0.50;99.90;;;;;;5020589;28;20029;-76
2022/01/26 07:35:59;;;;;;;47.90;22.95;;;0.50;99.90;;;;;;5020530;28;20030;-78
2022/01/26 07:38:26;;;;;;;42.50;22.52;;;0.60;99.90;;;;;;5039659;28;20038;-77
2022/01/26 07:40:52;;;;;;;44.33;22.15;;;0.60;99.90;;;;;;5023903;28;20026;-78
2022/01/26 07:43:18;;;;;;;48.63;25.83;;;0.80;99.90;;;;;;5022688;28;20026;-77
2022/01/26 07:45:43;;;;;;;46.63;23.85;;;0.70;99.90;;;;;;5022632;28;20103;-77
2022/01/26 07:48:09;;;;;;;39.83;23.52;;;0.60;99.90;;;;;;5037958;28;20085;-78
2022/01/26 07:50:35;;;;;;;47.95;24.35;;;0.60;99.90;;;;;;5026667;28;20409;-77
2022/01/26 07:53:02;;;;;;;48.65;24.38;;;0.60;99.90;;;;;;5024452;28;20029;-77
2022/01/26 07:55:28;;;;;;;43.60;22.67;;;0.70;99.90;;;;;;5022392;28;20398;-77
2022/01/26 07:57:56;;;;;;;48.00;24.67;;;0.70;99.90;;;;;;5026569;28;20021;-77
2022/01/26 08:00:22;;;;;;;44.83;24.63;;;0.80;99.90;;;;;;5025247;28;20112;-77
2022/01/26 08:02:47;;;;;;;51.47;25.05;;;0.80;99.90;;;;;;5024178;28;20030;-78
2022/01/26 08:05:14;;;;;;;46.67;24.40;;;0.90;99.90;;;;;;5026602;28;20086;-77
2022/01/26 08:07:40;;;;;;;44.88;23.65;;;0.70;99.90;;;;;;5024086;28;20081;-78
2022/01/26 08:10:08;;;;;;;46.92;23.42;;;0.70;99.90;;;;;;5019998;28;20483;-77
2022/01/26 08:12:34;;;;;;;45.80;23.05;;;0.70;99.90;;;;;;5025641;28;20026;-78
2022/01/26 08:14:59;;;;;;;48.53;23.65;;;0.60;99.90;;;;;;5022308;28;20030;-78
2022/01/26 08:17:25;;;;;;;54.65;25.65;;;0.60;99.90;;;;;;5034565;28;20040;-77
2022/01/26 08:19:54;;;;;;;42.00;22.25;;;0.60;99.90;;;;;;5035524;28;20090;-77
2022/01/26 08:22:20;;;;;;;51.78;25.88;;;0.60;99.90;;;;;;5036028;28;20026;-77
2022/01/26 08:24:46;;;;;;;46.78;23.33;;;0.70;99.90;;;;;;5035630;28;20486;-76
2022/01/26 08:27:14;;;;;;;48.65;24.38;;;0.60;99.90;;;;;;5029485;28;20084;-77
2022/01/26 08:29:47;;;;;;;52.15;23.05;;;0.50;99.90;;;;;;5025113;28;20044;-77
2022/01/26 08:32:13;;;;;;;41.42;22.58;;;0.50;99.90;;;;;;5050815;28;20010;-79
2022/01/26 08:34:39;;;;;;;47.70;23.10;;;0.60;99.90;;;;;;5038934;28;20057;-78
2022/01/26 08:37:05;;;;;;;52.28;25.77;;;0.50;99.90;;;;;;5038839;28;20081;-78
2022/01/26 08:39:32;;;;;;;44.17;23.42;;;0.50;99.90;;;;;;5024371;28;20022;-78
2022/01/26 08:41:59;;;;;;;47.15;22.98;;;0.50;99.90;;;;;;5022993;28;20034;-78
2022/01/26 08:44:25;;;;;;;46.70;24.10;;;0.50;99.90;;;;;;5021765;28;20037;-77
2022/01/26 08:46:52;;;;;;;55.95;25.17;;;0.50;99.90;;;;;;5018903;28;20029;-77
2022/01/26 08:49:18;;;;;;;49.78;26.48;;;0.50;99.90;;;;;;5018265;28;20022;-78
2022/01/26 08:51:43;;;;;;;49.63;25.30;;;0.60;99.90;;;;;;5016291;28;20054;-77
2022/01/26 08:54:10;;;;;;;52.72;25.75;;;0.70;99.90;;;;;;5016120;28;20026;-77
2022/01/26 08:56:37;;;;;;;53.90;24.08;;;0.70;99.90;;;;;;5015794;28;20394;-76
2022/01/26 08:59:03;;;;;;;53.13;26.23;;;0.70;99.90;;;;;;5016562;28;20036;-76
2022/01/26 09:01:29;;;;;;;53.63;27.13;;;0.70;99.90;;;;;;5017270;28;20053;-77
2022/01/26 09:03:54;;;;;;;50.03;26.13;;;0.70;99.90;;;;;;5023541;28;20017;-78
2022/01/26 09:06:20;;;;;;;46.45;23.10;;;0.70;99.90;;;;;;5028152;28;20038;-77
2022/01/26 09:08:51;;;;;;;54.20;28.92;;;0.70;99.90;;;;;;5019521;28;20029;-77
2022/01/26 09:11:21;;;;;;;;;;;0.80;99.90;;;;;;5018205;28;20053;-77
2022/01/26 09:13:51;;;;;;;55.63;25.83;;;0.80;99.90;;;;;;5016717;28;19909;-77
2022/01/26 09:16:19;;;;;;;48.65;25.17;;;0.80;99.90;;;;;;5027452;28;20012;-76
2022/01/26 09:18:51;;;;;;;51.15;25.15;;;0.80;99.90;;;;;;5028261;28;20037;-77
2022/01/26 09:21:18;;;;;;;48.17;24.58;;;0.90;99.90;;;;;;5017064;28;20026;-78
2022/01/26 09:23:44;;;;;;;51.25;26.25;;;0.90;99.90;;;;;;5032771;28;20494;-77
2022/01/26 09:26:10;;;;;;;43.67;23.40;;;0.90;99.90;;;;;;5015607;28;20022;-77
2022/01/26 09:28:36;;;;;;;43.40;23.73;;;0.90;99.90;;;;;;5015292;28;20051;-76
2022/01/26 09:31:02;;;;;;;43.15;23.45;;;0.90;99.90;;;;;;5015520;28;20037;-77
2022/01/26 09:33:28;;;;;;;46.00;25.00;;;1.00;99.90;;;;;;5016224;28;20425;-77
2022/01/26 09:35:53;;;;;;;43.17;22.73;;;1.00;99.90;;;;;;5022702;28;20033;-78
2022/01/26 09:38:19;;;;;;;42.88;23.73;;;1.00;99.90;;;;;;5024983;28;20035;-78
2022/01/26 09:40:49;;;;;;;49.33;24.15;;;1.00;99.90;;;;;;5015800;28;20022;-78
2022/01/26 09:43:17;;;;;;;44.95;23.33;;;0.90;99.90;;;;;;5016634;28;20116;-78
2022/01/26 09:45:44;;;;;;;51.78;26.92;;;1.00;99.90;;;;;;5015203;28;20018;-78
2022/01/26 09:48:11;;;;;;;49.47;24.48;;;1.00;99.90;;;;;;5016431;28;20072;-77
2022/01/26 09:50:37;;;;;;;52.53;24.27;;;1.10;99.90;;;;;;5018162;28;20029;-78
2022/01/26 09:53:03;;;;;;;46.58;24.02;;;1.20;99.90;;;;;;5013946;28;20026;-77
2022/01/26 09:55:29;;;;;;;48.28;25.67;;;1.30;99.90;;;;;;5014912;28;20029;-78
2022/01/26 09:57:58;;;;;;;49.67;24.60;;;1.30;99.90;;;;;;5015036;28;20418;-79
2022/01/26 10:00:27;;;;;;;45.88;24.90;;;1.30;99.90;;;;;;5016573;28;20054;-78
2022/01/26 10:02:58;;;;;;;45.00;23.65;;;1.30;99.90;;;;;;5019421;28;20026;-77
2022/01/26 10:05:24;;;;;;;45.25;22.52;;;1.40;99.90;;;;;;5018016;28;20305;-77
2022/01/26 10:08:12;;;;;;;50.13;24.27;;;1.40;99.90;;;;;;5018765;28;20030;-77
2022/01/26 10:16:13;;;;;;;46.70;24.15;;;1.30;99.90;;;;;;5020322;28;20021;-77
2022/01/26 10:18:39;;;;;;;41.95;23.02;;;1.40;99.90;;;;;;5024046;28;20017;-77
2022/01/26 10:21:08;;;;;;;40.40;22.98;;;1.40;99.90;;;;;;5016467;28;20084;-78
2022/01/26 10:23:42;;;;;;;41.53;22.02;;;1.40;99.90;;;;;;5017300;28;20037;-77
2022/01/26 10:26:13;;;;;;;42.10;24.20;;;1.50;99.90;;;;;;5021335;28;20109;-79
2022/01/26 10:28:59;;;;;;;39.38;22.88;;;1.50;99.90;;;;;;5016952;28;20049;-76
2022/01/26 10:31:29;;;;;;;42.53;21.70;;;1.70;99.90;;;;;;5016427;28;20037;-77
2022/01/26 10:34:02;;;;;;;39.33;20.80;;;1.70;99.90;;;;;;5024641;28;20033;-76
2022/01/26 10:36:38;;;;;;;39.50;21.73;;;1.70;99.90;;;;;;5028849;28;20030;-78
2022/01/26 10:39:30;;;;;;;42.65;22.92;;;1.70;99.90;;;;;;5028748;28;20033;-76
2022/01/26 10:42:02;;;;;;;40.97;21.83;;;1.60;99.90;;;;;;5025521;28;20061;-77
2022/01/26 10:44:40;;;;;;;35.42;21.05;;;1.50;99.90;;;;;;5025318;28;20104;-77
2022/01/26 10:47:08;;;;;;;37.58;20.55;;;1.70;99.90;;;;;;5035778;28;20028;-78
2022/01/26 10:52:34;;;;;;;38.45;21.10;;;1.90;99.90;;;;;;5023880;28;20026;-77
2022/01/26 10:55:00;;;;;;;39.55;22.23;;;1.90;99.90;;;;;;5025463;28;20026;-75
2022/01/26 10:57:25;;;;;;;40.47;21.90;;;1.90;99.90;;;;;;5025718;28;20072;-76
2022/01/26 10:59:51;;;;;;;44.75;22.60;;;1.60;99.90;;;;;;5041017;28;20030;-76
2022/01/26 11:02:24;;;;;;;43.65;22.48;;;1.60;99.90;;;;;;5024724;28;20080;-77
2022/01/26 11:04:50;;;;;;;40.50;21.25;;;1.60;99.90;;;;;;5019193;28;20374;-78
2022/01/26 11:07:16;;;;;;;40.15;22.33;;;1.60;99.90;;;;;;5018542;28;20026;-78
2022/01/26 11:09:45;;;;;;;44.03;22.83;;;1.50;99.90;;;;;;5018831;28;20073;-77
2022/01/26 11:12:12;;;;;;;43.22;23.63;;;1.50;99.90;;;;;;5019001;28;20029;-78
2022/01/26 11:14:45;;;;;;;39.35;23.80;;;1.60;99.90;;;;;;5017788;28;20332;-78
2022/01/26 11:17:23;;;;;;;42.58;21.77;;;1.60;99.90;;;;;;5019397;28;20022;-78
2022/01/26 11:19:49;;;;;;;38.45;20.63;;;1.60;99.90;;;;;;5021023;28;20033;-77
2022/01/26 11:22:14;;;;;;;41.83;23.83;;;1.70;99.90;;;;;;5020604;28;20022;-78
2022/01/26 11:24:49;;;;;;;48.28;25.20;;;1.60;99.90;;;;;;5045896;28;20085;-77
2022/01/26 11:27:17;;;;;;;45.13;23.48;;;1.50;99.90;;;;;;5034022;28;20022;-77
2022/01/26 11:29:47;;;;;;;54.42;24.52;;;1.40;99.90;;;;;;5034159;28;20018;-78
2022/01/26 11:32:25;;;;;;;46.30;25.45;;;1.40;99.90;;;;;;5034784;28;20005;-78
2022/01/26 11:34:54;;;;;;;46.47;21.42;;;1.20;99.90;;;;;;5031175;28;20030;-79
2022/01/26 11:37:41;;;;;;;46.97;23.60;;;1.30;99.90;;;;;;5027394;28;20038;-77
2022/01/26 11:45:35;;;;;;;44.17;21.92;;;1.50;99.90;;;;;;5031446;28;20010;-78
2022/01/26 11:48:03;;;;;;;50.03;22.42;;;1.40;99.90;;;;;;5031878;28;20078;-77
2022/01/26 11:50:30;;;;;;;45.85;23.52;;;1.10;99.90;;;;;;5031462;28;20022;-78
2022/01/26 11:53:10;;;;;;;47.65;24.45;;;0.90;99.90;;;;;;5033430;28;20006;-77
2022/01/26 11:55:50;;;;;;;45.95;22.95;;;0.80;99.90;;;;;;5023236;28;20030;-78
2022/01/26 11:58:29;;;;;;;49.70;22.80;;;0.70;99.90;;;;;;5026408;28;20030;-76
2022/01/26 12:04:03;;;;;;;57.75;24.20;;;0.50;99.90;;;;;;5037435;28;20041;-77
2022/01/26 12:06:36;;;;;;;44.63;18.90;;;0.60;99.90;;;;;;5035217;28;20029;-77
2022/01/26 12:09:03;;;;;;;54.53;23.90;;;0.60;99.90;;;;;;5032223;28;20029;-77
2022/01/26 12:11:29;;;;;;;50.20;23.48;;;0.60;99.90;;;;;;5035217;28;20046;-77
2022/01/26 12:14:04;;;;;;;45.00;22.00;;;0.60;99.90;;;;;;5050920;28;20028;-77
2022/01/26 12:16:34;;;;;;;48.42;22.08;;;0.60;99.90;;;;;;5034262;28;20064;-77
2022/01/26 12:19:23;;;;;;;49.47;23.33;;;0.70;99.90;;;;;;5033089;28;20014;-77
2022/01/26 12:35:56;;;;;;;45.10;23.48;;;0.80;99.90;;;;;;5033630;28;20022;-78
2022/01/26 12:41:22;;;;;;;48.42;21.95;;;0.90;99.90;;;;;;5033465;28;20033;-78
2022/01/26 12:43:49;;;;;;;39.67;20.85;;;0.90;99.90;;;;;;5029780;28;20168;-78
2022/01/26 12:46:19;;;;;;;37.03;20.15;;;1.10;99.90;;;;;;5027786;28;20030;-77
2022/01/26 12:48:52;;;;;;;38.83;21.63;;;1.10;99.90;;;;;;5030439;28;20030;-78
2022/01/26 12:51:18;;;;;;;35.42;18.00;;;1.40;99.90;;;;;;5028308;28;20026;-77
2022/01/26 12:53:44;;;;;;;41.90;21.20;;;1.20;99.90;;;;;;5029008;28;20087;-77
2022/01/26 12:56:13;;;;;;;35.10;18.13;;;1.10;99.90;;;;;;5024652;28;20496;-78
2022/01/26 12:58:41;;;;;;;39.15;20.77;;;0.90;99.90;;;;;;5028569;28;20030;-77
2022/01/26 13:01:14;;;;;;;38.83;21.73;;;0.90;99.90;;;;;;5027345;28;20094;-78
2022/01/26 13:03:41;;;;;;;36.97;19.67;;;1.00;99.90;;;;;;5025107;28;20022;-78
2022/01/26 13:06:21;;;;;;;40.17;21.92;;;1.00;99.90;;;;;;5021006;28;20032;-77
2022/01/26 13:08:54;;;;;;;37.60;20.63;;;1.10;99.90;;;;;;5018751;28;20425;-78
2022/01/26 13:11:23;;;;;;;35.22;20.13;;;1.10;99.90;;;;;;5017348;28;20034;-78
2022/01/26 13:13:48;;;;;;;42.47;20.60;;;1.20;99.90;;;;;;5021312;28;20049;-78
2022/01/26 13:16:17;;;;;;;33.08;17.70;;;1.10;99.90;;;;;;5026322;28;20022;-77
2022/01/26 13:24:22;;;;;;;37.60;19.33;;;1.10;99.90;;;;;;5024338;28;20025;-77
2022/01/26 13:27:14;;;;;;;34.03;20.13;;;1.10;99.90;;;;;;5025327;28;20087;-77
2022/01/26 13:30:09;;;;;;;42.00;22.30;;;1.20;99.90;;;;;;5024888;28;20042;-78
2022/01/26 13:35:16;;;;;;;40.90;21.13;;;1.00;99.90;;;;;;5023819;28;20029;-78
2022/01/26 13:46:48;;;;;;;38.38;19.42;;;0.80;99.90;;;;;;5036246;28;20017;-83
2022/01/26 13:51:24;;;;;;;36.95;18.15;;;0.50;99.90;;;;;;5035377;28;20029;-84
2022/01/26 13:56:31;;;;;;;43.25;21.50;;;0.50;99.90;;;;;;5035000;28;20013;-83
2022/01/26 13:59:07;;;;;;;41.90;20.40;;;0.50;99.90;;;;;;5033194;28;20034;-82
2022/01/26 14:01:35;;;;;;;40.95;20.33;;;0.60;99.90;;;;;;5031618;28;20093;-83
2022/01/26 14:04:04;;;;;;;39.78;19.10;;;0.60;99.90;;;;;;5032786;28;20026;-83
2022/01/26 14:06:30;;;;;;;33.35;19.42;;;0.50;99.90;;;;;;5030732;28;20028;-84
2022/01/26 14:08:55;;;;;;;38.15;18.55;;;0.50;99.90;;;;;;5027849;28;20049;-83
2022/01/26 14:11:21;;;;;;;38.08;20.10;;;0.60;99.90;;;;;;5026278;28;20022;-85
2022/01/26 14:13:48;;;;;;;36.30;17.48;;;0.60;99.90;;;;;;5032757;28;20025;-83
2022/01/26 14:16:16;;;;;;;36.53;18.63;;;0.50;99.90;;;;;;5032846;28;20026;-83
2022/01/26 14:19:05;;;;;;;32.08;17.27;;;0.60;99.90;;;;;;5032565;28;20077;-83
2022/01/26 14:26:49;;;;;;;32.15;17.00;;;0.40;99.90;;;;;;5035057;28;20124;-84
2022/01/26 14:29:27;;;;;;;37.75;19.95;;;0.40;99.90;;;;;;5034854;28;20033;-81
2022/01/26 14:40:35;;;;;;;31.02;15.43;;;0.30;99.90;;;;;;5037251;28;19929;-83
2022/01/26 15:08:44;;;;;;;42.38;19.60;;;0.20;99.90;;;;;;5036561;28;20029;-83
2022/01/26 15:34:59;;;;;;;35.30;17.48;;;0.20;99.90;;;;;;5055853;28;20037;-84
2022/01/26 15:40:29;;;;;;;31.23;14.82;;;0.30;99.90;;;;;;5045619;28;20056;-82
2022/01/26 16:07:41;;;;;;;26.55;15.93;;;0.40;99.90;;;;;;5038627;28;20109;-83
2022/01/26 16:21:06;;;;;;;30.88;16.42;;;0.30;99.90;;;;;;5038817;28;20012;-82
2022/01/26 16:26:44;;;;;;;32.45;16.65;;;0.30;99.90;;;;;;5038533;28;20036;-83
2022/01/26 17:02:08;;;;;;;33.08;15.77;;;0.30;99.90;;;;;;5037441;28;20053;-82
2022/01/26 17:37:46;;;;;;;36.05;17.40;;;0.20;99.90;;;;;;5036553;28;20048;-82
2022/01/26 18:07:19;;;;;;;41.47;18.85;;;0.30;99.90;;;;;;5032574;28;20021;-83
2022/01/26 18:17:48;;;;;;;38.58;19.15;;;0.40;99.90;;;;;;5032476;28;20006;-82
2022/01/26 18:49:21;;;;;;;36.97;19.83;;;0.20;99.90;;;;;;5033547;28;20022;-81
2022/01/26 18:51:57;;;;;;;40.92;18.95;;;0.20;99.90;;;;;;5033939;28;20022;-83
2022/01/26 18:54:25;;;;;;;38.53;20.05;;;0.30;99.90;;;;;;5033876;28;20037;-82
2022/01/26 18:56:52;;;;;;;36.42;20.55;;;0.30;99.90;;;;;;5036708;28;20013;-83
2022/01/26 18:59:18;;;;;;;35.75;19.65;;;0.40;99.90;;;;;;5046732;28;20024;-82
2022/01/26 19:01:44;;;;;;;42.15;19.45;;;0.40;99.90;;;;;;5030223;28;20026;-81
2022/01/26 19:04:10;;;;;;;42.85;22.13;;;0.40;99.90;;;;;;5049990;28;20026;-84
2022/01/26 19:06:42;;;;;;;43.70;19.48;;;0.50;99.90;;;;;;5036530;28;20048;-83
2022/01/26 19:09:08;;;;;;;36.05;19.02;;;0.40;99.90;;;;;;5033955;28;20026;-83